createdAt,value
2022-08-17T00:00:00.000Z,66.95
2022-08-17T00:15:00.000Z,65.12
2022-08-17T00:30:00.000Z,65.15
2022-08-17T00:45:00.000Z,66.09
2022-08-17T01:00:00.000Z,66.45
2022-08-17T01:15:00.000Z,67.08
2022-08-17T01:30:00.000Z,67.57
2022-08-17T01:45:00.000Z,68.01
2022-08-17T02:00:00.000Z,68.52
2022-08-17T02:15:00.000Z,68.57
2022-08-17T02:30:00.000Z,68.48
2022-08-17T02:45:00.000Z,68.62
2022-08-17T03:00:00.000Z,68.64
2022-08-17T03:15:00.000Z,68.8
2022-08-17T03:30:00.000Z,68.16
2022-08-17T03:45:00.000Z,67.95
2022-08-17T04:00:00.000Z,68.38
2022-08-17T04:15:00.000Z,68.34
2022-08-17T04:30:00.000Z,68.46
2022-08-17T04:45:00.000Z,68.08
2022-08-17T05:00:00.000Z,66.42
2022-08-17T05:15:00.000Z,65.14
2022-08-17T05:30:00.000Z,62.58
2022-08-17T05:45:00.000Z,61.51
2022-08-17T06:00:00.000Z,60.12
2022-08-17T06:15:00.000Z,58.33
2022-08-17T06:30:00.000Z,56.38
2022-08-17T06:45:00.000Z,53.4
2022-08-17T07:00:00.000Z,47.7
2022-08-17T07:15:00.000Z,39.38
2022-08-17T07:30:00.000Z,35.45
2022-08-17T07:45:00.000Z,33.14
2022-08-17T08:00:00.000Z,32.54
2022-08-17T08:15:00.000Z,31.38
2022-08-17T08:30:00.000Z,30.98
2022-08-17T08:45:00.000Z,30.16
2022-08-17T09:00:00.000Z,29.7
2022-08-17T09:15:00.000Z,29.7
2022-08-17T09:30:00.000Z,28.88
2022-08-17T09:45:00.000Z,29.2
2022-08-17T10:00:00.000Z,29.83
2022-08-17T10:15:00.000Z,29.93
2022-08-17T10:30:00.000Z,31.08
2022-08-17T10:45:00.000Z,31.79
2022-08-17T11:00:00.000Z,32.26
2022-08-17T11:15:00.000Z,31.71
2022-08-17T11:30:00.000Z,32.6
2022-08-17T11:45:00.000Z,33.06
2022-08-17T12:00:00.000Z,32.76
2022-08-17T12:15:00.000Z,33.39
2022-08-17T12:30:00.000Z,33.33
2022-08-17T12:45:00.000Z,33.2
2022-08-17T13:00:00.000Z,33.38
2022-08-17T13:15:00.000Z,32.93
2022-08-17T13:30:00.000Z,32.63
2022-08-17T13:45:00.000Z,33.08
2022-08-17T14:00:00.000Z,32.53
2022-08-17T14:15:00.000Z,32.01
2022-08-17T14:30:00.000Z,32.41
2022-08-17T14:45:00.000Z,32.44
2022-08-17T15:15:00.000Z,32.8
2022-08-17T15:15:00.000Z,33.29
2022-08-17T15:30:00.000Z,34.44
2022-08-17T15:45:00.000Z,34.09
2022-08-17T16:00:00.000Z,33.52
2022-08-17T16:15:00.000Z,34.64
2022-08-17T16:30:00.000Z,35.48
2022-08-17T16:45:00.000Z,36.72
2022-08-17T17:00:00.000Z,37.91
2022-08-17T17:15:00.000Z,40.05
2022-08-17T17:30:00.000Z,41.78
2022-08-17T17:45:00.000Z,42.03
2022-08-17T18:00:00.000Z,43.4
2022-08-17T18:15:00.000Z,44.8
2022-08-17T18:30:00.000Z,45.91
2022-08-17T18:45:00.000Z,48.06
2022-08-17T19:00:00.000Z,46.85
2022-08-17T19:15:00.000Z,48.11
2022-08-17T19:30:00.000Z,50.61
2022-08-17T19:45:00.000Z,51.72
2022-08-17T20:00:00.000Z,52.78
2022-08-17T20:15:00.000Z,53.9
2022-08-17T20:30:00.000Z,54.97
2022-08-17T20:45:00.000Z,55.27
2022-08-17T21:00:00.000Z,56.06
2022-08-17T21:15:00.000Z,57.07
2022-08-17T21:30:00.000Z,57.64
2022-08-17T21:45:00.000Z,58.33
2022-08-17T22:00:00.000Z,58.97
2022-08-17T22:15:00.000Z,60.61
2022-08-17T22:30:00.000Z,60.44
2022-08-17T22:45:00.000Z,60.55
2022-08-17T23:00:00.000Z,60.86
2022-08-17T23:15:00.000Z,60.34
2022-08-17T23:30:00.000Z,61.12
2022-08-17T23:45:00.000Z,61.84
